sensor_id;sensor_type;location;lat;lon;timestamp;temperature;humidity
78054;DHT22;67726;45.636;11.752;2023-04-24T00:00:06;16.60;76.20
78054;DHT22;67726;45.636;11.752;2023-04-24T00:02:34;16.70;76.00
78054;DHT22;67726;45.636;11.752;2023-04-24T00:05:03;16.70;75.60
78054;DHT22;67726;45.636;11.752;2023-04-24T00:07:29;16.60;75.60
78054;DHT22;67726;45.636;11.752;2023-04-24T00:09:55;16.60;75.30
78054;DHT22;67726;45.636;11.752;2023-04-24T00:12:21;16.70;75.30
78054;DHT22;67726;45.636;11.752;2023-04-24T00:14:47;16.60;74.70
78054;DHT22;67726;45.636;11.752;2023-04-24T00:17:12;16.60;74.70
78054;DHT22;67726;45.636;11.752;2023-04-24T00:19:38;16.60;74.60
78054;DHT22;67726;45.636;11.752;2023-04-24T00:22:04;16.50;74.50
78054;DHT22;67726;45.636;11.752;2023-04-24T00:24:31;16.50;74.50
78054;DHT22;67726;45.636;11.752;2023-04-24T00:26:56;16.50;74.30
78054;DHT22;67726;45.636;11.752;2023-04-24T00:29:22;16.50;74.60
78054;DHT22;67726;45.636;11.752;2023-04-24T00:31:48;16.60;74.50
78054;DHT22;67726;45.636;11.752;2023-04-24T00:34:13;16.50;74.10
78054;DHT22;67726;45.636;11.752;2023-04-24T00:36:39;16.60;73.60
78054;DHT22;67726;45.636;11.752;2023-04-24T00:39:06;16.60;73.60
78054;DHT22;67726;45.636;11.752;2023-04-24T00:41:35;16.60;73.40
78054;DHT22;67726;45.636;11.752;2023-04-24T00:44:01;16.60;73.10
78054;DHT22;67726;45.636;11.752;2023-04-24T00:46:27;16.60;73.10
78054;DHT22;67726;45.636;11.752;2023-04-24T00:48:52;16.60;73.20
78054;DHT22;67726;45.636;11.752;2023-04-24T00:51:19;16.60;74.00
78054;DHT22;67726;45.636;11.752;2023-04-24T00:53:45;16.60;74.50
78054;DHT22;67726;45.636;11.752;2023-04-24T00:56:11;16.60;74.20
78054;DHT22;67726;45.636;11.752;2023-04-24T00:58:38;16.60;74.00
78054;DHT22;67726;45.636;11.752;2023-04-24T01:01:03;16.70;73.50
78054;DHT22;67726;45.636;11.752;2023-04-24T01:03:33;16.70;73.40
78054;DHT22;67726;45.636;11.752;2023-04-24T01:05:59;16.60;73.60
78054;DHT22;67726;45.636;11.752;2023-04-24T01:08:26;16.70;73.40
78054;DHT22;67726;45.636;11.752;2023-04-24T01:10:53;16.70;73.50
78054;DHT22;67726;45.636;11.752;2023-04-24T01:13:19;16.70;73.40
78054;DHT22;67726;45.636;11.752;2023-04-24T01:15:47;16.70;73.00
78054;DHT22;67726;45.636;11.752;2023-04-24T01:18:14;16.70;73.20
78054;DHT22;67726;45.636;11.752;2023-04-24T01:20:41;16.70;72.60
78054;DHT22;67726;45.636;11.752;2023-04-24T01:23:09;16.70;72.60
78054;DHT22;67726;45.636;11.752;2023-04-24T01:25:36;16.80;72.40
78054;DHT22;67726;45.636;11.752;2023-04-24T01:28:02;16.80;71.80
78054;DHT22;67726;45.636;11.752;2023-04-24T01:30:28;16.70;71.50
78054;DHT22;67726;45.636;11.752;2023-04-24T01:32:53;16.70;71.50
78054;DHT22;67726;45.636;11.752;2023-04-24T01:35:20;16.70;71.20
78054;DHT22;67726;45.636;11.752;2023-04-24T01:37:46;16.70;70.90
78054;DHT22;67726;45.636;11.752;2023-04-24T01:40:12;16.70;70.80
78054;DHT22;67726;45.636;11.752;2023-04-24T01:42:41;16.70;70.70
78054;DHT22;67726;45.636;11.752;2023-04-24T01:45:09;16.70;70.50
78054;DHT22;67726;45.636;11.752;2023-04-24T01:47:35;16.60;69.90
78054;DHT22;67726;45.636;11.752;2023-04-24T01:50:01;16.60;69.90
78054;DHT22;67726;45.636;11.752;2023-04-24T01:52:27;16.60;69.80
78054;DHT22;67726;45.636;11.752;2023-04-24T01:54:59;16.60;69.40
78054;DHT22;67726;45.636;11.752;2023-04-24T01:57:25;16.60;69.20
78054;DHT22;67726;45.636;11.752;2023-04-24T01:59:52;16.60;69.20
78054;DHT22;67726;45.636;11.752;2023-04-24T02:02:17;16.60;68.60
78054;DHT22;67726;45.636;11.752;2023-04-24T02:04:43;16.60;68.30
78054;DHT22;67726;45.636;11.752;2023-04-24T02:07:09;16.70;68.40
78054;DHT22;67726;45.636;11.752;2023-04-24T02:09:34;16.60;68.30
78054;DHT22;67726;45.636;11.752;2023-04-24T02:12:00;16.70;68.20
78054;DHT22;67726;45.636;11.752;2023-04-24T02:14:26;16.60;67.60
78054;DHT22;67726;45.636;11.752;2023-04-24T02:16:51;16.70;67.50
78054;DHT22;67726;45.636;11.752;2023-04-24T02:19:18;16.70;67.30
78054;DHT22;67726;45.636;11.752;2023-04-24T02:21:44;16.70;67.00
78054;DHT22;67726;45.636;11.752;2023-04-24T02:24:10;16.70;67.10
78054;DHT22;67726;45.636;11.752;2023-04-24T02:26:35;16.70;66.60
78054;DHT22;67726;45.636;11.752;2023-04-24T02:29:01;16.80;66.60
78054;DHT22;67726;45.636;11.752;2023-04-24T02:31:27;16.80;66.20
78054;DHT22;67726;45.636;11.752;2023-04-24T02:33:53;16.80;66.20
78054;DHT22;67726;45.636;11.752;2023-04-24T02:36:18;16.70;65.80
78054;DHT22;67726;45.636;11.752;2023-04-24T02:38:44;16.80;66.10
78054;DHT22;67726;45.636;11.752;2023-04-24T02:41:09;16.80;65.70
78054;DHT22;67726;45.636;11.752;2023-04-24T02:43:35;16.70;66.00
78054;DHT22;67726;45.636;11.752;2023-04-24T02:46:01;16.80;65.50
78054;DHT22;67726;45.636;11.752;2023-04-24T02:48:26;16.80;65.50
78054;DHT22;67726;45.636;11.752;2023-04-24T02:50:52;16.70;64.70
78054;DHT22;67726;45.636;11.752;2023-04-24T02:53:18;16.70;64.70
78054;DHT22;67726;45.636;11.752;2023-04-24T02:55:44;16.70;64.60
78054;DHT22;67726;45.636;11.752;2023-04-24T02:58:10;16.70;64.50
78054;DHT22;67726;45.636;11.752;2023-04-24T03:00:38;16.70;64.30
78054;DHT22;67726;45.636;11.752;2023-04-24T03:03:04;16.70;64.00
78054;DHT22;67726;45.636;11.752;2023-04-24T03:05:31;16.80;64.10
78054;DHT22;67726;45.636;11.752;2023-04-24T03:07:56;16.70;63.80
78054;DHT22;67726;45.636;11.752;2023-04-24T03:10:22;16.80;63.30
78054;DHT22;67726;45.636;11.752;2023-04-24T03:12:48;16.80;63.50
78054;DHT22;67726;45.636;11.752;2023-04-24T03:15:14;16.80;63.30
78054;DHT22;67726;45.636;11.752;2023-04-24T03:17:40;16.80;63.00
78054;DHT22;67726;45.636;11.752;2023-04-24T03:20:06;16.90;62.90
78054;DHT22;67726;45.636;11.752;2023-04-24T03:22:33;16.80;63.20
78054;DHT22;67726;45.636;11.752;2023-04-24T03:24:59;16.90;63.00
78054;DHT22;67726;45.636;11.752;2023-04-24T03:27:25;16.80;62.80
78054;DHT22;67726;45.636;11.752;2023-04-24T03:29:50;16.80;62.40
78054;DHT22;67726;45.636;11.752;2023-04-24T03:32:21;16.90;61.90
78054;DHT22;67726;45.636;11.752;2023-04-24T03:34:48;16.80;61.70
78054;DHT22;67726;45.636;11.752;2023-04-24T03:37:14;16.90;61.20
78054;DHT22;67726;45.636;11.752;2023-04-24T03:39:40;16.90;61.80
78054;DHT22;67726;45.636;11.752;2023-04-24T03:42:06;16.90;61.30
78054;DHT22;67726;45.636;11.752;2023-04-24T03:44:32;16.80;62.40
78054;DHT22;67726;45.636;11.752;2023-04-24T03:46:58;16.90;64.90
78054;DHT22;67726;45.636;11.752;2023-04-24T03:49:24;16.70;65.40
78054;DHT22;67726;45.636;11.752;2023-04-24T03:51:50;16.50;65.10
78054;DHT22;67726;45.636;11.752;2023-04-24T03:54:16;16.30;67.30
78054;DHT22;67726;45.636;11.752;2023-04-24T03:56:41;16.10;67.20
78054;DHT22;67726;45.636;11.752;2023-04-24T03:59:07;16.00;71.30
78054;DHT22;67726;45.636;11.752;2023-04-24T04:01:33;15.70;72.80
78054;DHT22;67726;45.636;11.752;2023-04-24T04:04:02;15.70;73.20
78054;DHT22;67726;45.636;11.752;2023-04-24T04:06:27;15.50;77.30
78054;DHT22;67726;45.636;11.752;2023-04-24T04:08:53;15.30;78.70
78054;DHT22;67726;45.636;11.752;2023-04-24T04:11:19;15.20;79.80
78054;DHT22;67726;45.636;11.752;2023-04-24T04:13:45;15.20;79.90
78054;DHT22;67726;45.636;11.752;2023-04-24T04:16:13;15.10;78.40
78054;DHT22;67726;45.636;11.752;2023-04-24T04:18:39;15.10;78.40
78054;DHT22;67726;45.636;11.752;2023-04-24T04:21:04;14.90;79.60
78054;DHT22;67726;45.636;11.752;2023-04-24T04:23:31;15.00;79.90
78054;DHT22;67726;45.636;11.752;2023-04-24T04:25:57;15.00;80.90
78054;DHT22;67726;45.636;11.752;2023-04-24T04:28:23;14.80;81.70
78054;DHT22;67726;45.636;11.752;2023-04-24T04:30:50;14.60;82.40
78054;DHT22;67726;45.636;11.752;2023-04-24T04:33:20;14.50;82.60
78054;DHT22;67726;45.636;11.752;2023-04-24T04:35:46;14.50;82.70
78054;DHT22;67726;45.636;11.752;2023-04-24T04:38:14;14.50;82.40
78054;DHT22;67726;45.636;11.752;2023-04-24T04:40:40;14.60;82.60
78054;DHT22;67726;45.636;11.752;2023-04-24T04:43:06;14.50;82.40
78054;DHT22;67726;45.636;11.752;2023-04-24T04:45:32;14.60;83.10
78054;DHT22;67726;45.636;11.752;2023-04-24T04:47:59;14.60;84.60
78054;DHT22;67726;45.636;11.752;2023-04-24T04:50:26;14.50;84.20
78054;DHT22;67726;45.636;11.752;2023-04-24T04:52:52;14.40;85.20
78054;DHT22;67726;45.636;11.752;2023-04-24T04:55:18;14.40;85.30
78054;DHT22;67726;45.636;11.752;2023-04-24T04:57:45;14.30;85.10
78054;DHT22;67726;45.636;11.752;2023-04-24T05:00:12;14.40;85.30
78054;DHT22;67726;45.636;11.752;2023-04-24T05:02:38;14.30;85.30
78054;DHT22;67726;45.636;11.752;2023-04-24T05:05:05;14.30;85.40
78054;DHT22;67726;45.636;11.752;2023-04-24T05:07:31;14.30;85.10
78054;DHT22;67726;45.636;11.752;2023-04-24T05:09:56;14.20;85.40
78054;DHT22;67726;45.636;11.752;2023-04-24T05:12:22;14.30;85.20
78054;DHT22;67726;45.636;11.752;2023-04-24T05:14:48;14.20;85.20
78054;DHT22;67726;45.636;11.752;2023-04-24T05:17:14;14.30;85.40
78054;DHT22;67726;45.636;11.752;2023-04-24T05:19:40;14.30;85.30
78054;DHT22;67726;45.636;11.752;2023-04-24T05:22:06;14.30;85.10
78054;DHT22;67726;45.636;11.752;2023-04-24T05:24:36;14.40;85.00
78054;DHT22;67726;45.636;11.752;2023-04-24T05:27:05;14.40;85.50
78054;DHT22;67726;45.636;11.752;2023-04-24T05:29:31;14.50;85.10
78054;DHT22;67726;45.636;11.752;2023-04-24T05:31:57;14.50;85.00
78054;DHT22;67726;45.636;11.752;2023-04-24T05:34:23;14.60;85.20
78054;DHT22;67726;45.636;11.752;2023-04-24T05:36:49;14.60;85.30
78054;DHT22;67726;45.636;11.752;2023-04-24T05:39:16;14.60;85.40
78054;DHT22;67726;45.636;11.752;2023-04-24T05:41:41;14.70;85.60
78054;DHT22;67726;45.636;11.752;2023-04-24T05:44:07;14.60;85.20
78054;DHT22;67726;45.636;11.752;2023-04-24T05:46:33;14.70;85.30
78054;DHT22;67726;45.636;11.752;2023-04-24T05:48:58;14.60;85.40
78054;DHT22;67726;45.636;11.752;2023-04-24T05:51:24;14.60;85.50
78054;DHT22;67726;45.636;11.752;2023-04-24T05:53:51;14.70;85.30
78054;DHT22;67726;45.636;11.752;2023-04-24T05:56:17;14.80;85.50
78054;DHT22;67726;45.636;11.752;2023-04-24T05:58:42;14.70;85.40
78054;DHT22;67726;45.636;11.752;2023-04-24T06:01:08;14.70;85.60
78054;DHT22;67726;45.636;11.752;2023-04-24T06:03:34;14.60;85.20
78054;DHT22;67726;45.636;11.752;2023-04-24T06:06:00;14.60;85.50
78054;DHT22;67726;45.636;11.752;2023-04-24T06:08:26;14.60;85.40
78054;DHT22;67726;45.636;11.752;2023-04-24T06:10:51;14.70;85.20
78054;DHT22;67726;45.636;11.752;2023-04-24T06:13:17;14.70;85.10
78054;DHT22;67726;45.636;11.752;2023-04-24T06:15:43;14.60;85.60
78054;DHT22;67726;45.636;11.752;2023-04-24T06:18:09;14.70;85.80
78054;DHT22;67726;45.636;11.752;2023-04-24T06:20:38;14.60;85.70
78054;DHT22;67726;45.636;11.752;2023-04-24T06:23:04;14.60;85.40
78054;DHT22;67726;45.636;11.752;2023-04-24T06:25:29;14.50;85.40
78054;DHT22;67726;45.636;11.752;2023-04-24T06:27:56;14.60;85.80
78054;DHT22;67726;45.636;11.752;2023-04-24T06:30:22;14.60;85.50
78054;DHT22;67726;45.636;11.752;2023-04-24T06:32:48;14.50;85.50
78054;DHT22;67726;45.636;11.752;2023-04-24T06:35:13;14.50;85.20
78054;DHT22;67726;45.636;11.752;2023-04-24T06:37:41;14.50;85.30
78054;DHT22;67726;45.636;11.752;2023-04-24T06:40:07;14.50;85.40
78054;DHT22;67726;45.636;11.752;2023-04-24T06:42:33;14.50;85.40
78054;DHT22;67726;45.636;11.752;2023-04-24T06:45:00;14.50;85.70
78054;DHT22;67726;45.636;11.752;2023-04-24T06:47:26;14.50;85.80
78054;DHT22;67726;45.636;11.752;2023-04-24T06:49:52;14.50;85.60
78054;DHT22;67726;45.636;11.752;2023-04-24T06:52:18;14.50;85.20
78054;DHT22;67726;45.636;11.752;2023-04-24T06:54:44;14.40;85.40
78054;DHT22;67726;45.636;11.752;2023-04-24T06:57:09;14.40;85.50
78054;DHT22;67726;45.636;11.752;2023-04-24T06:59:36;14.20;84.90
78054;DHT22;67726;45.636;11.752;2023-04-24T07:02:02;14.20;84.90
78054;DHT22;67726;45.636;11.752;2023-04-24T07:04:28;14.20;85.20
78054;DHT22;67726;45.636;11.752;2023-04-24T07:06:54;14.20;85.50
78054;DHT22;67726;45.636;11.752;2023-04-24T07:09:21;14.20;85.30
78054;DHT22;67726;45.636;11.752;2023-04-24T07:11:47;14.10;85.20
78054;DHT22;67726;45.636;11.752;2023-04-24T07:14:13;14.20;85.70
78054;DHT22;67726;45.636;11.752;2023-04-24T07:16:39;14.30;85.40
78054;DHT22;67726;45.636;11.752;2023-04-24T07:19:06;14.30;85.50
78054;DHT22;67726;45.636;11.752;2023-04-24T07:21:32;14.30;85.40
78054;DHT22;67726;45.636;11.752;2023-04-24T07:23:58;14.30;85.60
78054;DHT22;67726;45.636;11.752;2023-04-24T07:26:24;14.30;85.20
78054;DHT22;67726;45.636;11.752;2023-04-24T07:28:50;14.20;85.30
78054;DHT22;67726;45.636;11.752;2023-04-24T07:31:16;14.20;84.90
78054;DHT22;67726;45.636;11.752;2023-04-24T07:33:41;14.20;84.60
78054;DHT22;67726;45.636;11.752;2023-04-24T07:36:07;14.10;84.50
78054;DHT22;67726;45.636;11.752;2023-04-24T07:38:33;14.00;84.30
78054;DHT22;67726;45.636;11.752;2023-04-24T07:40:58;13.90;83.70
78054;DHT22;67726;45.636;11.752;2023-04-24T07:43:24;13.80;83.50
78054;DHT22;67726;45.636;11.752;2023-04-24T07:45:50;13.70;83.50
78054;DHT22;67726;45.636;11.752;2023-04-24T07:48:16;13.70;83.60
78054;DHT22;67726;45.636;11.752;2023-04-24T07:50:43;13.60;83.10
78054;DHT22;67726;45.636;11.752;2023-04-24T07:53:09;13.60;83.90
78054;DHT22;67726;45.636;11.752;2023-04-24T07:55:35;13.60;84.00
78054;DHT22;67726;45.636;11.752;2023-04-24T07:58:01;13.60;84.30
78054;DHT22;67726;45.636;11.752;2023-04-24T08:00:26;13.70;84.80
78054;DHT22;67726;45.636;11.752;2023-04-24T08:02:52;13.80;84.00
78054;DHT22;67726;45.636;11.752;2023-04-24T08:05:18;13.70;84.20
78054;DHT22;67726;45.636;11.752;2023-04-24T08:07:44;13.70;84.20
78054;DHT22;67726;45.636;11.752;2023-04-24T08:10:11;13.60;83.60
78054;DHT22;67726;45.636;11.752;2023-04-24T08:12:37;13.50;83.60
78054;DHT22;67726;45.636;11.752;2023-04-24T08:15:04;13.60;80.70
78054;DHT22;67726;45.636;11.752;2023-04-24T08:17:30;13.70;81.40
78054;DHT22;67726;45.636;11.752;2023-04-24T08:19:56;13.90;81.50
78054;DHT22;67726;45.636;11.752;2023-04-24T08:22:27;14.10;83.70
78054;DHT22;67726;45.636;11.752;2023-04-24T08:24:54;14.30;83.20
78054;DHT22;67726;45.636;11.752;2023-04-24T08:27:20;14.50;83.10
78054;DHT22;67726;45.636;11.752;2023-04-24T08:29:45;14.80;83.30
78054;DHT22;67726;45.636;11.752;2023-04-24T08:32:11;15.00;83.90
78054;DHT22;67726;45.636;11.752;2023-04-24T08:34:37;15.10;83.30
78054;DHT22;67726;45.636;11.752;2023-04-24T08:37:03;15.00;78.20
78054;DHT22;67726;45.636;11.752;2023-04-24T08:39:28;14.60;78.10
78054;DHT22;67726;45.636;11.752;2023-04-24T08:41:55;14.80;80.60
78054;DHT22;67726;45.636;11.752;2023-04-24T08:44:21;14.90;79.10
78054;DHT22;67726;45.636;11.752;2023-04-24T08:46:50;15.00;81.70
78054;DHT22;67726;45.636;11.752;2023-04-24T08:49:17;15.20;81.40
78054;DHT22;67726;45.636;11.752;2023-04-24T08:51:45;15.50;79.00
78054;DHT22;67726;45.636;11.752;2023-04-24T08:54:12;15.70;79.10
78054;DHT22;67726;45.636;11.752;2023-04-24T08:56:40;16.00;80.00
78054;DHT22;67726;45.636;11.752;2023-04-24T08:59:08;16.40;81.70
78054;DHT22;67726;45.636;11.752;2023-04-24T09:01:34;16.70;78.90
78054;DHT22;67726;45.636;11.752;2023-04-24T09:04:03;16.70;77.70
78054;DHT22;67726;45.636;11.752;2023-04-24T09:06:30;16.70;78.50
78054;DHT22;67726;45.636;11.752;2023-04-24T09:09:00;16.90;77.40
78054;DHT22;67726;45.636;11.752;2023-04-24T09:11:26;16.90;76.90
78054;DHT22;67726;45.636;11.752;2023-04-24T09:13:53;17.00;76.50
78054;DHT22;67726;45.636;11.752;2023-04-24T09:16:20;17.20;76.80
78054;DHT22;67726;45.636;11.752;2023-04-24T09:18:46;17.20;76.40
78054;DHT22;67726;45.636;11.752;2023-04-24T09:21:11;17.40;75.80
78054;DHT22;67726;45.636;11.752;2023-04-24T09:23:38;17.80;75.40
78054;DHT22;67726;45.636;11.752;2023-04-24T09:26:04;17.50;73.10
78054;DHT22;67726;45.636;11.752;2023-04-24T09:28:36;17.90;76.30
78054;DHT22;67726;45.636;11.752;2023-04-24T09:31:09;18.00;70.00
78054;DHT22;67726;45.636;11.752;2023-04-24T09:33:36;18.20;68.90
78054;DHT22;67726;45.636;11.752;2023-04-24T09:36:02;18.20;67.30
78054;DHT22;67726;45.636;11.752;2023-04-24T09:38:35;18.30;65.70
78054;DHT22;67726;45.636;11.752;2023-04-24T09:41:03;18.50;66.10
78054;DHT22;67726;45.636;11.752;2023-04-24T09:43:30;18.50;66.30
78054;DHT22;67726;45.636;11.752;2023-04-24T09:45:57;18.30;62.40
78054;DHT22;67726;45.636;11.752;2023-04-24T09:48:34;18.40;63.20
78054;DHT22;67726;45.636;11.752;2023-04-24T09:51:05;18.50;63.60
78054;DHT22;67726;45.636;11.752;2023-04-24T09:53:36;18.20;61.80
78054;DHT22;67726;45.636;11.752;2023-04-24T09:56:09;18.30;64.00
78054;DHT22;67726;45.636;11.752;2023-04-24T09:58:36;18.50;63.10
78054;DHT22;67726;45.636;11.752;2023-04-24T10:01:01;18.70;63.20
78054;DHT22;67726;45.636;11.752;2023-04-24T10:03:30;18.70;61.30
78054;DHT22;67726;45.636;11.752;2023-04-24T10:06:03;18.70;57.50
78054;DHT22;67726;45.636;11.752;2023-04-24T10:08:35;18.80;60.80
78054;DHT22;67726;45.636;11.752;2023-04-24T10:11:01;19.10;64.30
78054;DHT22;67726;45.636;11.752;2023-04-24T10:13:28;19.40;63.50
78054;DHT22;67726;45.636;11.752;2023-04-24T10:15:54;19.50;55.60
78054;DHT22;67726;45.636;11.752;2023-04-24T10:18:20;19.70;63.70
78054;DHT22;67726;45.636;11.752;2023-04-24T10:20:46;20.00;62.90
78054;DHT22;67726;45.636;11.752;2023-04-24T10:23:12;20.20;64.60
78054;DHT22;67726;45.636;11.752;2023-04-24T10:25:38;20.70;67.40
78054;DHT22;67726;45.636;11.752;2023-04-24T10:28:04;21.10;65.30
78054;DHT22;67726;45.636;11.752;2023-04-24T10:30:32;21.40;49.40
78054;DHT22;67726;45.636;11.752;2023-04-24T10:33:05;21.50;46.10
78054;DHT22;67726;45.636;11.752;2023-04-24T10:35:35;21.20;51.90
78054;DHT22;67726;45.636;11.752;2023-04-24T10:38:03;20.70;48.20
78054;DHT22;67726;45.636;11.752;2023-04-24T10:40:34;20.80;47.70
78054;DHT22;67726;45.636;11.752;2023-04-24T10:43:02;20.70;55.60
78054;DHT22;67726;45.636;11.752;2023-04-24T10:45:28;20.80;53.60
78054;DHT22;67726;45.636;11.752;2023-04-24T10:48:05;20.90;53.80
78054;DHT22;67726;45.636;11.752;2023-04-24T10:50:46;21.20;48.10
78054;DHT22;67726;45.636;11.752;2023-04-24T10:53:18;21.70;43.90
78054;DHT22;67726;45.636;11.752;2023-04-24T10:55:49;21.40;42.70
78054;DHT22;67726;45.636;11.752;2023-04-24T10:58:16;21.00;43.50
78054;DHT22;67726;45.636;11.752;2023-04-24T11:00:58;21.00;46.90
78054;DHT22;67726;45.636;11.752;2023-04-24T11:03:25;20.90;48.50
78054;DHT22;67726;45.636;11.752;2023-04-24T11:06:09;20.80;46.50
78054;DHT22;67726;45.636;11.752;2023-04-24T11:08:42;20.90;46.20
78054;DHT22;67726;45.636;11.752;2023-04-24T11:11:13;20.90;47.70
78054;DHT22;67726;45.636;11.752;2023-04-24T11:16:25;21.50;44.80
78054;DHT22;67726;45.636;11.752;2023-04-24T11:18:52;21.50;43.90
78054;DHT22;67726;45.636;11.752;2023-04-24T11:21:25;21.70;44.10
78054;DHT22;67726;45.636;11.752;2023-04-24T11:23:51;21.50;40.60
78054;DHT22;67726;45.636;11.752;2023-04-24T11:26:23;21.50;44.80
78054;DHT22;67726;45.636;11.752;2023-04-24T11:29:06;21.60;45.70
78054;DHT22;67726;45.636;11.752;2023-04-24T11:31:36;21.30;49.70
78054;DHT22;67726;45.636;11.752;2023-04-24T11:34:10;21.30;43.40
78054;DHT22;67726;45.636;11.752;2023-04-24T11:36:36;21.30;45.60
78054;DHT22;67726;45.636;11.752;2023-04-24T11:39:02;21.20;44.70
78054;DHT22;67726;45.636;11.752;2023-04-24T11:41:28;21.70;48.10
78054;DHT22;67726;45.636;11.752;2023-04-24T11:43:54;22.00;44.70
78054;DHT22;67726;45.636;11.752;2023-04-24T11:46:21;21.30;49.20
78054;DHT22;67726;45.636;11.752;2023-04-24T11:48:47;21.50;44.70
78054;DHT22;67726;45.636;11.752;2023-04-24T11:51:13;21.70;43.10
78054;DHT22;67726;45.636;11.752;2023-04-24T11:53:39;21.60;44.50
78054;DHT22;67726;45.636;11.752;2023-04-24T11:56:05;21.90;48.70
78054;DHT22;67726;45.636;11.752;2023-04-24T11:58:38;22.00;42.00
78054;DHT22;67726;45.636;11.752;2023-04-24T12:01:04;21.30;43.50
78054;DHT22;67726;45.636;11.752;2023-04-24T12:03:31;21.60;48.10
78054;DHT22;67726;45.636;11.752;2023-04-24T12:06:06;22.10;48.40
78054;DHT22;67726;45.636;11.752;2023-04-24T12:08:33;22.40;41.90
78054;DHT22;67726;45.636;11.752;2023-04-24T12:11:03;21.80;43.50
78054;DHT22;67726;45.636;11.752;2023-04-24T12:13:30;21.80;44.70
78054;DHT22;67726;45.636;11.752;2023-04-24T12:15:59;22.20;42.50
78054;DHT22;67726;45.636;11.752;2023-04-24T12:18:26;22.10;47.60
78054;DHT22;67726;45.636;11.752;2023-04-24T12:20:51;22.80;49.20
78054;DHT22;67726;45.636;11.752;2023-04-24T12:23:35;22.80;42.30
78054;DHT22;67726;45.636;11.752;2023-04-24T12:26:04;23.20;42.50
78054;DHT22;67726;45.636;11.752;2023-04-24T12:28:37;23.00;44.80
78054;DHT22;67726;45.636;11.752;2023-04-24T12:31:03;23.00;42.00
78054;DHT22;67726;45.636;11.752;2023-04-24T12:33:33;23.10;40.00
78054;DHT22;67726;45.636;11.752;2023-04-24T12:35:59;23.70;41.20
78054;DHT22;67726;45.636;11.752;2023-04-24T12:38:27;23.70;40.40
78054;DHT22;67726;45.636;11.752;2023-04-24T12:41:04;24.00;44.70
78054;DHT22;67726;45.636;11.752;2023-04-24T12:43:30;24.50;36.90
78054;DHT22;67726;45.636;11.752;2023-04-24T12:45:56;25.10;39.10
78054;DHT22;67726;45.636;11.752;2023-04-24T12:48:22;25.20;40.90
78054;DHT22;67726;45.636;11.752;2023-04-24T12:50:48;25.20;39.10
78054;DHT22;67726;45.636;11.752;2023-04-24T12:53:14;24.90;38.60
78054;DHT22;67726;45.636;11.752;2023-04-24T12:55:41;24.50;36.90
78054;DHT22;67726;45.636;11.752;2023-04-24T12:58:07;24.60;39.60
78054;DHT22;67726;45.636;11.752;2023-04-24T13:00:33;25.00;39.10
78054;DHT22;67726;45.636;11.752;2023-04-24T13:02:59;25.00;37.80
78054;DHT22;67726;45.636;11.752;2023-04-24T13:05:25;24.90;37.60
78054;DHT22;67726;45.636;11.752;2023-04-24T13:07:50;25.40;36.20
78054;DHT22;67726;45.636;11.752;2023-04-24T13:10:16;26.10;34.40
78054;DHT22;67726;45.636;11.752;2023-04-24T13:12:42;26.70;35.50
78054;DHT22;67726;45.636;11.752;2023-04-24T13:15:10;27.50;30.50
78054;DHT22;67726;45.636;11.752;2023-04-24T13:17:36;25.90;35.50
78054;DHT22;67726;45.636;11.752;2023-04-24T13:20:02;26.70;35.90
78054;DHT22;67726;45.636;11.752;2023-04-24T13:22:28;26.10;35.10
78054;DHT22;67726;45.636;11.752;2023-04-24T13:24:53;26.10;34.80
78054;DHT22;67726;45.636;11.752;2023-04-24T13:27:20;26.10;34.80
78054;DHT22;67726;45.636;11.752;2023-04-24T13:29:46;25.70;36.00
78054;DHT22;67726;45.636;11.752;2023-04-24T13:32:11;25.30;36.80
78054;DHT22;67726;45.636;11.752;2023-04-24T13:34:37;25.40;34.40
78054;DHT22;67726;45.636;11.752;2023-04-24T13:37:04;26.00;37.70
78054;DHT22;67726;45.636;11.752;2023-04-24T13:39:30;26.60;38.90
78054;DHT22;67726;45.636;11.752;2023-04-24T13:41:57;26.70;32.40
78054;DHT22;67726;45.636;11.752;2023-04-24T13:44:22;26.90;33.80
78054;DHT22;67726;45.636;11.752;2023-04-24T13:46:50;25.70;34.10
78054;DHT22;67726;45.636;11.752;2023-04-24T13:49:18;25.50;35.90
78054;DHT22;67726;45.636;11.752;2023-04-24T13:51:44;24.70;38.10
78054;DHT22;67726;45.636;11.752;2023-04-24T13:54:11;24.60;38.20
78054;DHT22;67726;45.636;11.752;2023-04-24T13:56:37;25.30;41.20
78054;DHT22;67726;45.636;11.752;2023-04-24T13:59:02;25.20;35.80
78054;DHT22;67726;45.636;11.752;2023-04-24T14:01:28;25.00;36.60
78054;DHT22;67726;45.636;11.752;2023-04-24T14:03:55;25.60;35.00
78054;DHT22;67726;45.636;11.752;2023-04-24T14:06:21;25.50;35.30
78054;DHT22;67726;45.636;11.752;2023-04-24T14:08:48;25.40;34.50
78054;DHT22;67726;45.636;11.752;2023-04-24T14:11:16;25.50;37.50
78054;DHT22;67726;45.636;11.752;2023-04-24T14:13:42;25.00;36.30
78054;DHT22;67726;45.636;11.752;2023-04-24T14:16:09;24.30;37.30
78054;DHT22;67726;45.636;11.752;2023-04-24T14:18:35;25.00;35.90
78054;DHT22;67726;45.636;11.752;2023-04-24T14:21:02;25.00;34.60
78054;DHT22;67726;45.636;11.752;2023-04-24T14:23:28;24.80;35.50
78054;DHT22;67726;45.636;11.752;2023-04-24T14:25:53;25.40;35.30
78054;DHT22;67726;45.636;11.752;2023-04-24T14:28:20;24.80;35.40
78054;DHT22;67726;45.636;11.752;2023-04-24T14:30:47;24.40;38.60
78054;DHT22;67726;45.636;11.752;2023-04-24T14:33:13;24.00;38.60
78054;DHT22;67726;45.636;11.752;2023-04-24T14:35:39;24.10;38.00
78054;DHT22;67726;45.636;11.752;2023-04-24T14:38:07;24.00;38.30
78054;DHT22;67726;45.636;11.752;2023-04-24T14:40:33;23.40;40.70
78054;DHT22;67726;45.636;11.752;2023-04-24T14:42:58;23.70;37.00
78054;DHT22;67726;45.636;11.752;2023-04-24T14:45:25;23.60;38.40
78054;DHT22;67726;45.636;11.752;2023-04-24T14:47:50;22.90;39.60
78054;DHT22;67726;45.636;11.752;2023-04-24T14:50:16;23.30;38.90
78054;DHT22;67726;45.636;11.752;2023-04-24T14:52:42;23.60;39.50
78054;DHT22;67726;45.636;11.752;2023-04-24T14:55:08;23.40;39.40
78054;DHT22;67726;45.636;11.752;2023-04-24T14:57:34;23.40;39.50
78054;DHT22;67726;45.636;11.752;2023-04-24T15:00:01;23.10;38.20
78054;DHT22;67726;45.636;11.752;2023-04-24T15:02:28;23.20;42.00
78054;DHT22;67726;45.636;11.752;2023-04-24T15:04:54;23.10;38.10
78054;DHT22;67726;45.636;11.752;2023-04-24T15:07:20;23.00;42.30
78054;DHT22;67726;45.636;11.752;2023-04-24T15:09:45;23.30;42.90
78054;DHT22;67726;45.636;11.752;2023-04-24T15:12:12;22.80;38.30
78054;DHT22;67726;45.636;11.752;2023-04-24T15:14:38;22.80;38.90